Time;durP1;ratioP1;P1;durP2;ratioP2;P2;SDS_P1;SDS_P2;PMS_P1;PMS_P2;Temp;Humidity;BMP_temperature;BMP_pressure;BME280_temperature;BME280_humidity;BME280_pressure;Samples;Min_cycle;Max_cycle;Signal;HPM_P1;HPM_P2
2023/10/04 00:00:21;;;;;;;4.50;3.70;;;22.60;56.50;;;;;;5034957;28;20625;-75
2023/10/04 00:02:51;;;;;;;4.03;3.57;;;22.60;56.70;;;;;;5024159;28;20508;-75
2023/10/04 00:05:20;;;;;;;5.80;3.30;;;22.60;56.70;;;;;;5024273;28;20474;-74
2023/10/04 00:07:51;;;;;;;5.03;3.57;;;22.60;56.70;;;;;;5034257;28;20443;-75
2023/10/04 00:10:20;;;;;;;8.63;3.20;;;22.60;56.70;;;;;;5027907;28;20503;-76
2023/10/04 00:12:48;;;;;;;7.30;3.07;;;22.60;56.80;;;;;;5032326;28;21006;-76
2023/10/04 00:15:18;;;;;;;5.03;3.53;;;22.60;56.70;;;;;;5014346;28;20440;-75
2023/10/04 00:17:48;;;;;;;3.47;3.00;;;22.60;56.80;;;;;;5023778;28;20498;-76
2023/10/04 00:20:16;;;;;;;3.60;3.30;;;22.50;56.60;;;;;;5033872;28;20475;-76
2023/10/04 00:22:46;;;;;;;3.47;2.90;;;22.50;56.80;;;;;;5033791;28;20444;-76
2023/10/04 00:25:20;;;;;;;5.00;2.97;;;22.50;56.70;;;;;;5034218;28;20451;-76
2023/10/04 00:27:50;;;;;;;3.20;2.90;;;22.50;56.80;;;;;;5034578;28;20451;-75
2023/10/04 00:30:18;;;;;;;7.03;2.87;;;22.50;56.90;;;;;;5034375;28;20498;-76
2023/10/04 00:32:47;;;;;;;6.17;2.77;;;22.50;56.80;;;;;;5016505;28;20535;-76
2023/10/04 00:35:17;;;;;;;3.63;3.20;;;22.50;56.80;;;;;;5014709;28;20456;-76
2023/10/04 00:37:48;;;;;;;4.27;3.03;;;22.40;56.70;;;;;;5031683;28;20490;-76
2023/10/04 00:40:21;;;;;;;3.27;2.77;;;22.40;56.80;;;;;;5021048;28;20495;-76
2023/10/04 00:42:50;;;;;;;3.77;2.83;;;22.50;56.80;;;;;;5023495;28;20439;-76
2023/10/04 00:45:19;;;;;;;3.53;2.80;;;22.50;56.80;;;;;;5020531;28;20575;-76
2023/10/04 00:47:50;;;;;;;3.97;2.50;;;22.40;56.80;;;;;;5032115;28;20443;-76
2023/10/04 00:50:22;;;;;;;2.53;2.33;;;22.40;56.80;;;;;;5018820;28;20467;-76
2023/10/04 00:52:53;;;;;;;4.87;2.77;;;22.40;56.80;;;;;;5031953;28;20436;-76
2023/10/04 00:55:24;;;;;;;3.03;2.73;;;22.40;56.70;;;;;;5021866;28;20831;-76
2023/10/04 00:57:54;;;;;;;3.80;2.73;;;22.40;56.80;;;;;;5021542;28;20440;-76
2023/10/04 01:00:22;;;;;;;4.40;3.00;;;22.40;56.90;;;;;;5026524;28;21056;-76
2023/10/04 01:02:50;;;;;;;4.00;2.83;;;22.40;56.80;;;;;;5025164;28;20805;-75
2023/10/04 01:05:22;;;;;;;3.23;2.43;;;22.40;56.70;;;;;;5033227;28;20439;-75
2023/10/04 01:07:50;;;;;;;2.70;2.50;;;22.40;56.90;;;;;;5028189;28;20481;-76
2023/10/04 01:10:21;;;;;;;5.03;2.70;;;22.30;56.90;;;;;;5032594;28;20505;-76
2023/10/04 01:12:52;;;;;;;4.40;2.63;;;22.40;56.80;;;;;;5032779;28;20443;-75
2023/10/04 01:18:04;;;;;;;5.13;2.77;;;22.30;56.80;;;;;;5024885;28;20452;-76
2023/10/04 01:20:33;;;;;;;2.90;2.70;;;22.30;56.80;;;;;;5032344;28;20476;-75
2023/10/04 01:23:05;;;;;;;2.60;2.40;;;22.30;56.80;;;;;;5022174;28;20459;-75
2023/10/04 01:25:33;;;;;;;5.67;3.17;;;22.30;56.80;;;;;;5027817;28;20455;-75
2023/10/04 01:28:03;;;;;;;3.30;2.60;;;22.30;56.70;;;;;;5021159;28;20515;-75
2023/10/04 01:30:31;;;;;;;3.53;2.97;;;22.30;56.80;;;;;;5018214;28;20483;-75
2023/10/04 01:33:03;;;;;;;5.50;2.30;;;22.30;56.80;;;;;;5014840;28;20443;-75
2023/10/04 01:35:32;;;;;;;2.47;2.27;;;22.30;56.80;;;;;;5038103;28;20443;-75
2023/10/04 01:38:00;;;;;;;4.47;2.47;;;22.30;56.80;;;;;;5048181;28;20473;-75
2023/10/04 01:40:34;;;;;;;3.23;2.57;;;22.30;56.80;;;;;;5050467;28;20531;-75
2023/10/04 01:43:06;;;;;;;3.13;2.30;;;22.30;56.60;;;;;;5050290;28;20462;-75
2023/10/04 01:45:36;;;;;;;4.33;2.70;;;22.20;56.80;;;;;;5049149;28;20455;-75
2023/10/04 01:48:06;;;;;;;3.33;2.43;;;22.20;56.80;;;;;;5047780;28;20489;-75
2023/10/04 01:50:34;;;;;;;3.30;2.10;;;22.20;56.90;;;;;;5033893;28;20847;-75
2023/10/04 01:53:03;;;;;;;3.63;2.00;;;22.20;56.80;;;;;;5031895;28;20533;-75
2023/10/04 01:55:32;;;;;;;2.80;1.73;;;22.20;56.90;;;;;;5032330;28;20542;-75
2023/10/04 01:58:00;;;;;;;2.80;2.47;;;22.20;56.80;;;;;;5022714;28;20542;-75
2023/10/04 02:00:29;;;;;;;3.97;2.10;;;22.20;56.80;;;;;;5020354;28;20480;-75
2023/10/04 02:02:57;;;;;;;2.50;2.20;;;22.20;57.00;;;;;;5029841;28;20447;-75
2023/10/04 02:05:30;;;;;;;2.13;1.90;;;22.10;56.70;;;;;;5027440;28;20451;-75
2023/10/04 02:07:58;;;;;;;3.03;2.20;;;22.10;56.80;;;;;;5033452;28;20538;-75
2023/10/04 02:10:28;;;;;;;2.00;1.90;;;22.20;57.00;;;;;;5040221;28;20471;-75
2023/10/04 02:12:57;;;;;;;2.73;2.50;;;22.10;56.80;;;;;;5032546;28;20522;-75
2023/10/04 02:15:26;;;;;;;4.30;2.23;;;22.10;56.90;;;;;;5032065;28;20439;-75
2023/10/04 02:17:58;;;;;;;2.27;2.07;;;22.10;56.90;;;;;;5023614;28;20437;-75
2023/10/04 02:20:28;;;;;;;2.97;2.13;;;22.10;56.90;;;;;;5022473;28;20557;-75
2023/10/04 02:22:56;;;;;;;2.50;1.70;;;22.10;56.90;;;;;;5029685;28;20447;-75
2023/10/04 02:25:24;;;;;;;4.73;2.13;;;22.10;57.00;;;;;;5027674;28;20479;-75
2023/10/04 02:27:52;;;;;;;2.43;2.23;;;22.10;56.90;;;;;;5031287;28;20455;-75
2023/10/04 02:30:26;;;;;;;4.03;2.20;;;22.10;56.80;;;;;;5023560;28;20475;-75
2023/10/04 02:32:54;;;;;;;3.40;2.10;;;22.10;56.90;;;;;;5032103;28;20411;-75
2023/10/04 02:35:26;;;;;;;2.47;2.37;;;22.10;56.90;;;;;;5028062;28;20471;-75
2023/10/04 02:37:59;;;;;;;2.80;2.27;;;22.10;57.00;;;;;;5028830;28;20542;-76
2023/10/04 02:40:32;;;;;;;3.23;2.10;;;22.00;56.80;;;;;;5032395;28;20808;-75
2023/10/04 02:43:04;;;;;;;2.67;2.40;;;22.00;56.70;;;;;;5032047;28;20474;-75
2023/10/04 02:45:36;;;;;;;2.37;1.90;;;22.00;56.80;;;;;;5032198;28;20511;-75
2023/10/04 02:48:06;;;;;;;1.53;1.43;;;22.00;57.00;;;;;;5030170;28;20447;-75
2023/10/04 02:50:34;;;;;;;2.33;2.13;;;22.00;56.90;;;;;;5025974;28;20455;-75
2023/10/04 02:53:03;;;;;;;2.57;2.37;;;22.00;57.00;;;;;;5032147;28;20531;-76
2023/10/04 02:55:31;;;;;;;3.80;2.30;;;22.00;56.90;;;;;;5032224;28;20474;-76
2023/10/04 02:58:00;;;;;;;1.73;1.63;;;22.00;57.00;;;;;;5031970;28;20454;-75
2023/10/04 03:00:29;;;;;;;4.97;2.10;;;22.00;57.00;;;;;;5031227;28;20475;-75
2023/10/04 03:02:59;;;;;;;2.30;2.10;;;22.00;57.00;;;;;;5031736;28;20482;-75
2023/10/04 03:05:31;;;;;;;1.97;1.77;;;21.90;57.00;;;;;;5032120;28;20447;-75
2023/10/04 03:08:07;;;;;;;1.90;1.80;;;21.90;57.10;;;;;;5034855;28;20452;-75
2023/10/04 03:10:35;;;;;;;2.90;1.93;;;22.00;57.00;;;;;;5035429;28;20555;-74
2023/10/04 03:13:11;;;;;;;2.10;1.90;;;21.90;57.00;;;;;;5035721;28;20473;-75
2023/10/04 03:15:39;;;;;;;2.07;1.87;;;21.90;56.90;;;;;;5035124;28;20897;-75
2023/10/04 03:18:15;;;;;;;2.07;1.83;;;21.90;57.00;;;;;;5033039;28;20462;-75
2023/10/04 03:20:53;;;;;;;3.73;1.83;;;21.90;57.00;;;;;;5035039;28;20467;-75
2023/10/04 03:23:23;;;;;;;1.83;1.73;;;21.90;56.90;;;;;;5015733;28;20506;-75
2023/10/04 03:25:52;;;;;;;1.70;1.57;;;21.90;56.90;;;;;;5030957;28;20459;-75
2023/10/04 03:28:25;;;;;;;2.80;1.93;;;21.90;57.00;;;;;;5032148;28;20440;-75
2023/10/04 03:30:53;;;;;;;1.80;1.60;;;21.90;57.10;;;;;;5015540;28;20543;-75
2023/10/04 03:33:23;;;;;;;1.90;1.67;;;21.90;57.10;;;;;;5017670;28;20464;-75
2023/10/04 03:35:53;;;;;;;2.50;1.47;;;21.90;57.10;;;;;;5030624;28;20471;-75
2023/10/04 03:38:22;;;;;;;4.03;1.80;;;21.90;57.00;;;;;;5035158;28;20448;-75
2023/10/04 03:40:50;;;;;;;4.60;1.57;;;21.90;56.90;;;;;;5034765;28;20463;-75
2023/10/04 03:43:19;;;;;;;2.13;1.70;;;21.90;57.00;;;;;;5034813;28;20435;-74
2023/10/04 03:45:47;;;;;;;3.20;1.77;;;21.90;57.10;;;;;;5034720;28;20919;-75
2023/10/04 03:48:16;;;;;;;2.17;1.60;;;21.80;56.90;;;;;;5034470;28;20440;-75
2023/10/04 03:50:49;;;;;;;2.50;2.10;;;21.80;57.00;;;;;;5030638;28;20467;-75
2023/10/04 03:53:20;;;;;;;2.23;1.63;;;21.80;57.00;;;;;;5034314;28;20507;-75
2023/10/04 03:55:48;;;;;;;2.60;1.83;;;21.80;57.00;;;;;;5034575;28;20487;-75
2023/10/04 03:58:19;;;;;;;2.40;1.80;;;21.80;56.90;;;;;;5024150;28;20464;-75
2023/10/04 04:00:47;;;;;;;1.63;1.53;;;21.80;57.00;;;;;;5015035;28;20507;-75
2023/10/04 04:03:15;;;;;;;2.30;1.80;;;21.80;57.10;;;;;;5017087;28;20452;-76
2023/10/04 04:05:44;;;;;;;2.53;1.67;;;21.80;57.00;;;;;;5034168;28;20482;-75
2023/10/04 04:08:14;;;;;;;1.90;1.80;;;21.80;57.20;;;;;;5025973;28;20474;-76
2023/10/04 04:10:43;;;;;;;2.43;1.80;;;21.80;57.10;;;;;;5020698;28;21000;-76
2023/10/04 04:13:11;;;;;;;1.70;1.53;;;21.70;57.10;;;;;;5025634;28;20951;-75
2023/10/04 04:15:39;;;;;;;2.90;1.70;;;21.80;57.10;;;;;;5034346;28;20444;-75
2023/10/04 04:18:19;;;;;;;3.50;1.60;;;21.80;57.00;;;;;;5034559;28;20446;-75
2023/10/04 04:20:48;;;;;;;3.23;1.93;;;21.70;57.00;;;;;;5034744;28;21048;-75
2023/10/04 04:23:19;;;;;;;1.97;1.30;;;21.70;57.20;;;;;;5033922;28;20586;-75
2023/10/04 04:25:48;;;;;;;1.70;1.50;;;21.80;57.10;;;;;;5034786;28;20439;-75
2023/10/04 04:28:18;;;;;;;2.07;1.80;;;21.70;57.00;;;;;;5034434;28;20439;-75
2023/10/04 04:30:47;;;;;;;2.63;2.00;;;21.70;57.10;;;;;;5032019;28;20471;-75
2023/10/04 04:33:17;;;;;;;3.50;1.80;;;21.80;57.10;;;;;;5034621;28;20478;-75
2023/10/04 04:35:51;;;;;;;1.83;1.53;;;21.70;57.00;;;;;;5034382;28;20443;-75
2023/10/04 04:38:22;;;;;;;3.73;1.83;;;21.70;56.80;;;;;;5034377;28;20444;-75
2023/10/04 04:40:54;;;;;;;3.50;2.00;;;21.70;57.00;;;;;;5033281;28;20558;-75
2023/10/04 04:43:35;;;;;;;3.10;2.03;;;21.70;57.00;;;;;;5033657;28;20479;-76
2023/10/04 04:46:08;;;;;;;2.17;1.70;;;21.70;57.00;;;;;;5033901;28;20458;-76
2023/10/04 04:48:37;;;;;;;1.80;1.70;;;21.60;57.00;;;;;;5033825;28;20447;-76
2023/10/04 04:51:11;;;;;;;1.90;1.60;;;21.60;57.00;;;;;;5029284;28;20525;-76
2023/10/04 04:53:41;;;;;;;2.20;1.40;;;21.70;57.10;;;;;;5034030;28;20445;-76
2023/10/04 04:56:12;;;;;;;3.77;1.90;;;21.70;57.10;;;;;;5033756;28;20513;-76
2023/10/04 04:58:41;;;;;;;5.30;1.70;;;21.60;56.90;;;;;;5029052;28;20455;-76
2023/10/04 05:01:11;;;;;;;2.03;1.43;;;21.60;57.00;;;;;;5033671;28;20437;-76
2023/10/04 05:03:42;;;;;;;2.03;1.57;;;21.60;57.20;;;;;;5020937;28;20469;-76
2023/10/04 05:06:16;;;;;;;1.90;1.53;;;21.60;57.00;;;;;;5022098;28;20475;-76
2023/10/04 05:08:46;;;;;;;2.60;1.67;;;21.60;57.20;;;;;;5033586;28;20444;-76
2023/10/04 05:11:14;;;;;;;1.97;1.60;;;21.60;57.10;;;;;;5033188;28;20442;-76
2023/10/04 05:13:43;;;;;;;1.77;1.60;;;21.60;57.20;;;;;;5033328;28;20511;-76
2023/10/04 05:16:11;;;;;;;1.90;1.70;;;21.60;57.10;;;;;;5032852;28;20451;-76
2023/10/04 05:18:39;;;;;;;3.03;1.97;;;21.60;57.20;;;;;;5033097;28;20447;-76
2023/10/04 05:21:10;;;;;;;1.70;1.60;;;21.60;57.20;;;;;;5033073;28;20529;-76
2023/10/04 05:23:39;;;;;;;2.13;1.43;;;21.60;57.20;;;;;;5025431;28;20474;-76
2023/10/04 05:26:11;;;;;;;2.10;1.83;;;21.60;57.20;;;;;;5025164;28;20475;-76
2023/10/04 05:28:39;;;;;;;2.40;1.50;;;21.60;57.20;;;;;;5013467;28;20923;-76
2023/10/04 05:31:08;;;;;;;3.37;2.10;;;21.60;57.10;;;;;;5013100;28;20471;-77
2023/10/04 05:33:36;;;;;;;1.60;1.50;;;21.50;57.20;;;;;;5019619;28;20468;-76
2023/10/04 05:36:06;;;;;;;1.60;1.50;;;21.50;57.30;;;;;;5020585;28;20478;-76
2023/10/04 05:38:35;;;;;;;3.17;2.03;;;21.50;57.20;;;;;;5029861;28;20533;-76
2023/10/04 05:41:09;;;;;;;2.60;1.70;;;21.60;57.20;;;;;;5028316;28;20462;-76
2023/10/04 05:43:39;;;;;;;3.97;1.70;;;21.60;57.20;;;;;;5024677;28;20467;-76
2023/10/04 05:46:07;;;;;;;2.30;1.90;;;21.60;57.20;;;;;;5025029;28;20515;-76
2023/10/04 05:48:36;;;;;;;2.90;1.80;;;21.60;57.20;;;;;;5024525;28;20467;-76
2023/10/04 05:51:06;;;;;;;1.87;1.60;;;21.60;57.20;;;;;;5025545;28;20475;-76
2023/10/04 05:53:35;;;;;;;2.53;1.90;;;21.50;57.00;;;;;;5016027;28;21010;-76
2023/10/04 05:56:06;;;;;;;2.90;1.70;;;21.60;57.10;;;;;;5033788;28;20447;-76
2023/10/04 05:58:35;;;;;;;2.90;1.57;;;21.60;57.20;;;;;;5046700;28;20432;-76
2023/10/04 06:01:06;;;;;;;2.30;1.57;;;21.50;56.90;;;;;;5030188;28;20452;-76
2023/10/04 06:03:35;;;;;;;4.40;2.27;;;21.60;57.20;;;;;;5027714;28;20465;-76
2023/10/04 06:06:04;;;;;;;2.60;1.70;;;21.50;57.10;;;;;;5027849;28;20447;-76
2023/10/04 06:08:33;;;;;;;2.80;1.70;;;21.60;57.00;;;;;;5024649;28;21004;-76
2023/10/04 06:11:04;;;;;;;1.77;1.63;;;21.60;57.10;;;;;;5033279;28;20463;-76
2023/10/04 06:13:34;;;;;;;1.77;1.40;;;21.60;57.20;;;;;;5033037;28;20458;-76
2023/10/04 06:16:04;;;;;;;3.40;1.80;;;21.60;57.20;;;;;;5034280;28;20512;-76
2023/10/04 06:18:33;;;;;;;2.37;1.70;;;21.60;57.00;;;;;;5025126;28;20490;-77
2023/10/04 06:21:00;;;;;;;2.93;2.20;;;21.60;57.10;;;;;;5015424;28;20468;-76
2023/10/04 06:23:30;;;;;;;2.93;1.80;;;21.60;57.00;;;;;;5032332;28;20526;-75
2023/10/04 06:25:59;;;;;;;2.53;2.00;;;21.60;56.90;;;;;;5047388;28;20470;-75
2023/10/04 06:28:28;;;;;;;1.57;1.30;;;21.60;57.10;;;;;;5034228;28;20502;-75
2023/10/04 06:30:57;;;;;;;2.07;1.60;;;21.60;56.90;;;;;;5032661;28;20469;-75
2023/10/04 06:33:27;;;;;;;2.23;2.00;;;21.60;57.00;;;;;;5015313;28;20468;-75
2023/10/04 06:35:55;;;;;;;2.83;1.77;;;21.60;56.80;;;;;;5012802;28;20532;-76
2023/10/04 06:38:24;;;;;;;2.30;1.67;;;21.60;56.90;;;;;;5028622;28;20455;-75
2023/10/04 06:40:52;;;;;;;2.20;1.70;;;21.60;56.80;;;;;;5034942;28;20466;-75
2023/10/04 06:43:20;;;;;;;2.60;1.83;;;21.60;56.80;;;;;;5042297;28;20478;-74
2023/10/04 06:45:49;;;;;;;2.60;1.63;;;21.70;57.20;;;;;;5036370;28;20423;-75
2023/10/04 06:48:18;;;;;;;2.30;1.70;;;21.70;57.00;;;;;;5036576;28;20446;-73
2023/10/04 06:50:49;;;;;;;6.63;2.30;;;21.70;58.00;;;;;;5036133;28;20451;-72
2023/10/04 06:53:18;;;;;;;9.27;3.13;;;20.50;59.50;;;;;;5027784;28;20444;-73
2023/10/04 06:55:46;;;;;;;8.53;2.50;;;19.70;63.50;;;;;;5036148;28;20455;-72
2023/10/04 06:58:15;;;;;;;9.27;3.23;;;19.30;66.80;;;;;;5035803;28;20505;-72
2023/10/04 07:00:43;;;;;;;6.30;2.87;;;18.80;66.80;;;;;;5031137;28;20474;-72
2023/10/04 07:03:10;;;;;;;19.87;6.00;;;18.20;69.20;;;;;;5035229;28;20471;-72
2023/10/04 07:05:39;;;;;;;13.50;3.50;;;17.60;73.60;;;;;;5043665;28;20443;-72
2023/10/04 07:08:12;;;;;;;12.17;3.60;;;17.00;77.00;;;;;;5045804;28;20434;-74
2023/10/04 07:10:42;;;;;;;12.00;3.33;;;16.60;80.80;;;;;;5058660;28;20464;-73
2023/10/04 07:13:10;;;;;;;13.13;3.90;;;16.40;85.80;;;;;;5053347;28;20447;-72
2023/10/04 07:15:41;;;;;;;17.80;4.10;;;16.60;87.10;;;;;;5035957;28;20451;-73
2023/10/04 07:18:11;;;;;;;9.80;4.03;;;16.50;89.40;;;;;;5024151;28;20484;-74
2023/10/04 07:20:40;;;;;;;7.43;3.10;;;16.60;90.10;;;;;;5035191;28;20471;-74
2023/10/04 07:23:10;;;;;;;13.50;3.17;;;16.50;91.30;;;;;;5035021;28;20475;-74
2023/10/04 07:25:41;;;;;;;13.97;4.90;;;16.40;93.10;;;;;;5034961;28;20443;-73
2023/10/04 07:28:11;;;;;;;6.53;3.60;;;16.60;93.00;;;;;;5035158;28;20434;-73
2023/10/04 07:30:39;;;;;;;10.73;3.50;;;16.50;92.90;;;;;;5034821;28;20513;-74
2023/10/04 07:33:08;;;;;;;15.60;5.73;;;16.50;93.90;;;;;;5026422;28;20431;-73
2023/10/04 07:35:37;;;;;;;13.30;4.57;;;16.60;94.00;;;;;;5034285;28;20458;-74
2023/10/04 07:38:05;;;;;;;10.60;5.10;;;16.90;93.90;;;;;;5034635;28;20530;-74
2023/10/04 07:40:35;;;;;;;18.70;5.07;;;17.20;94.80;;;;;;5033220;28;20546;-73
2023/10/04 07:43:03;;;;;;;10.87;3.90;;;17.40;93.80;;;;;;5028565;28;20435;-73
2023/10/04 07:45:31;;;;;;;12.67;4.30;;;17.60;92.80;;;;;;5033945;28;20436;-74
2023/10/04 07:48:01;;;;;;;13.90;3.80;;;17.70;92.30;;;;;;5020825;28;20436;-74
2023/10/04 07:50:31;;;;;;;10.73;4.60;;;17.60;92.90;;;;;;5020964;28;20522;-75
2023/10/04 07:53:00;;;;;;;12.07;4.03;;;17.50;92.90;;;;;;5021995;28;20440;-73
2023/10/04 07:55:29;;;;;;;10.30;3.60;;;17.80;92.10;;;;;;5034833;28;20443;-73
2023/10/04 07:58:03;;;;;;;14.93;4.17;;;18.20;91.40;;;;;;5035077;28;20423;-74
2023/10/04 08:00:31;;;;;;;8.43;2.80;;;18.30;91.80;;;;;;5023569;28;20471;-73
2023/10/04 08:02:59;;;;;;;8.60;3.90;;;18.50;90.70;;;;;;5026784;28;20447;-73
2023/10/04 08:05:31;;;;;;;13.13;2.90;;;18.60;90.10;;;;;;5033002;28;20926;-73
2023/10/04 08:08:00;;;;;;;9.90;3.20;;;18.70;89.50;;;;;;5028950;28;20467;-73
2023/10/04 08:10:32;;;;;;;7.23;3.13;;;18.90;88.10;;;;;;5031640;28;20456;-73
2023/10/04 08:13:02;;;;;;;11.13;4.00;;;19.00;88.70;;;;;;5033122;28;20538;-73
2023/10/04 08:15:32;;;;;;;14.67;4.33;;;19.40;87.20;;;;;;5020710;28;20432;-73
2023/10/04 08:18:01;;;;;;;16.30;3.93;;;19.60;84.70;;;;;;5033352;28;20458;-73
2023/10/04 08:20:29;;;;;;;10.67;3.20;;;19.70;84.80;;;;;;5014355;28;20557;-72
2023/10/04 08:22:58;;;;;;;8.50;3.10;;;19.70;83.40;;;;;;5022683;28;20436;-73
2023/10/04 08:25:27;;;;;;;9.73;3.47;;;19.70;83.70;;;;;;5025169;28;20469;-73
2023/10/04 08:27:55;;;;;;;7.80;3.00;;;19.70;84.20;;;;;;5026046;28;20908;-72
2023/10/04 08:30:27;;;;;;;9.23;3.10;;;19.90;82.90;;;;;;5018380;28;20514;-73
2023/10/04 08:32:55;;;;;;;7.37;3.00;;;20.00;82.50;;;;;;5025702;28;20447;-74
2023/10/04 08:35:24;;;;;;;11.73;3.83;;;20.20;81.10;;;;;;5029164;28;20447;-73
2023/10/04 08:37:54;;;;;;;9.17;3.80;;;20.30;79.70;;;;;;5033287;28;20944;-73
2023/10/04 08:40:22;;;;;;;10.30;3.53;;;20.60;80.30;;;;;;5034169;28;20534;-73
2023/10/04 08:42:51;;;;;;;8.50;2.80;;;20.60;77.60;;;;;;5036306;28;20479;-73
2023/10/04 08:45:20;;;;;;;8.90;3.20;;;20.40;77.90;;;;;;5025395;28;20498;-73
2023/10/04 08:47:51;;;;;;;15.40;3.50;;;20.70;79.50;;;;;;5032811;28;20431;-74
2023/10/04 08:50:26;;;;;;;6.27;2.77;;;20.70;78.40;;;;;;5028787;28;20463;-73
2023/10/04 08:52:56;;;;;;;10.20;2.83;;;21.10;77.80;;;;;;5034001;28;20423;-73
2023/10/04 08:55:24;;;;;;;10.30;3.30;;;21.10;76.10;;;;;;5034507;28;20451;-74
2023/10/04 08:57:53;;;;;;;7.07;3.03;;;21.50;75.40;;;;;;5047750;28;20442;-73
2023/10/04 09:00:28;;;;;;;12.50;3.37;;;21.60;74.60;;;;;;5048333;28;20542;-74
2023/10/04 09:03:00;;;;;;;13.87;4.10;;;21.70;72.80;;;;;;5034846;28;20501;-74
2023/10/04 09:05:29;;;;;;;8.77;2.87;;;21.80;73.60;;;;;;5016621;28;20464;-73
2023/10/04 09:07:56;;;;;;;9.57;3.37;;;21.90;71.50;;;;;;5014493;28;20513;-73
2023/10/04 09:10:25;;;;;;;10.97;3.83;;;21.90;72.00;;;;;;5015932;28;20464;-73
2023/10/04 09:12:53;;;;;;;8.10;3.77;;;22.00;71.30;;;;;;5014424;28;20471;-73
2023/10/04 09:15:26;;;;;;;10.77;3.50;;;21.90;70.20;;;;;;5021259;28;20439;-73
2023/10/04 09:17:57;;;;;;;9.63;2.87;;;22.20;69.80;;;;;;5032978;28;20485;-73
2023/10/04 09:20:29;;;;;;;7.40;2.90;;;22.20;69.80;;;;;;5026018;28;20498;-74
2023/10/04 09:22:59;;;;;;;6.70;3.00;;;22.20;68.00;;;;;;5033630;28;20466;-73
2023/10/04 09:25:35;;;;;;;7.87;2.93;;;22.30;68.40;;;;;;5033162;28;20486;-73
2023/10/04 09:28:05;;;;;;;12.70;3.77;;;22.60;66.80;;;;;;5020836;28;20432;-73
2023/10/04 09:30:36;;;;;;;9.83;3.50;;;22.50;66.70;;;;;;5020930;28;20522;-73
2023/10/04 09:33:05;;;;;;;9.10;3.40;;;22.80;66.80;;;;;;5025677;28;20440;-73
2023/10/04 09:35:44;;;;;;;13.00;3.93;;;22.90;66.20;;;;;;5014952;28;20518;-73
2023/10/04 09:38:15;;;;;;;12.93;3.70;;;22.90;65.50;;;;;;5035632;28;20454;-73
2023/10/04 09:40:51;;;;;;;9.10;3.40;;;23.10;65.40;;;;;;5033533;28;20466;-73
2023/10/04 09:43:19;;;;;;;9.20;3.93;;;23.10;64.60;;;;;;5026286;28;20432;-73
2023/10/04 09:45:56;;;;;;;9.53;3.33;;;23.00;64.00;;;;;;5013161;28;20544;-73
2023/10/04 09:48:25;;;;;;;8.23;3.70;;;23.00;64.70;;;;;;5021853;28;20460;-73
2023/10/04 09:51:00;;;;;;;8.53;3.80;;;23.00;64.80;;;;;;5021253;28;20542;-73
2023/10/04 09:53:29;;;;;;;11.70;4.43;;;23.00;63.70;;;;;;5022737;28;20434;-73
2023/10/04 09:56:00;;;;;;;9.53;3.80;;;23.00;64.20;;;;;;5032542;28;20439;-72
2023/10/04 09:58:28;;;;;;;11.03;4.10;;;23.20;63.50;;;;;;5029190;28;20513;-73
2023/10/04 10:00:57;;;;;;;14.60;4.27;;;23.20;62.90;;;;;;5033039;28;20957;-73
2023/10/04 10:03:27;;;;;;;7.77;3.80;;;23.10;62.10;;;;;;5031818;28;20523;-73
2023/10/04 10:05:56;;;;;;;10.70;3.80;;;23.10;62.40;;;;;;5031674;28;20450;-73
2023/10/04 10:08:27;;;;;;;7.87;3.93;;;23.10;62.30;;;;;;5032529;28;20444;-73
2023/10/04 10:10:55;;;;;;;9.07;3.90;;;23.40;63.70;;;;;;5032265;28;20535;-73
2023/10/04 10:13:22;;;;;;;10.73;4.00;;;23.50;61.40;;;;;;5018490;28;20444;-73
2023/10/04 10:15:53;;;;;;;10.40;4.60;;;23.40;59.70;;;;;;5024120;28;20857;-73
2023/10/04 10:18:21;;;;;;;16.70;4.80;;;23.30;59.70;;;;;;5018812;28;20409;-73
2023/10/04 10:20:49;;;;;;;9.33;4.27;;;23.30;59.80;;;;;;5041982;22;20567;-77
2023/10/04 10:23:21;;;;;;;11.63;4.30;;;23.40;59.40;;;;;;5050299;28;20424;-77
2023/10/04 10:26:19;;;;;;;11.77;4.70;;;23.80;59.10;;;;;;5037081;28;20498;-77
2023/10/04 10:28:49;;;;;;;17.50;4.30;;;24.10;58.60;;;;;;5038691;28;20429;-78
2023/10/04 10:31:20;;;;;;;10.90;4.27;;;24.10;57.80;;;;;;5034844;28;20464;-77
2023/10/04 10:33:50;;;;;;;10.63;3.90;;;23.80;58.00;;;;;;5034765;28;20478;-77
2023/10/04 10:36:22;;;;;;;10.33;4.70;;;24.00;58.30;;;;;;5047127;28;20446;-77
2023/10/04 10:38:50;;;;;;;10.97;3.83;;;24.30;58.50;;;;;;5036689;28;20518;-75
2023/10/04 10:41:58;;;;;;;11.83;3.90;;;24.20;57.20;;;;;;5029243;28;20455;-77
2023/10/04 10:44:33;;;;;;;8.60;4.00;;;23.90;57.70;;;;;;5023355;28;20426;-77
2023/10/04 10:47:08;;;;;;;17.20;3.87;;;23.80;57.80;;;;;;5028961;28;20506;-77
2023/10/04 10:49:51;;;;;;;12.67;3.70;;;23.70;57.70;;;;;;5023732;28;20536;-78
2023/10/04 10:52:23;;;;;;;12.73;3.70;;;23.60;56.60;;;;;;5024842;28;20501;-77
2023/10/04 10:54:52;;;;;;;13.37;4.40;;;23.90;56.80;;;;;;5032690;28;20423;-78
2023/10/04 10:57:21;;;;;;;6.23;3.43;;;23.80;57.40;;;;;;5030419;28;20451;-78
2023/10/04 10:59:54;;;;;;;11.47;4.70;;;23.80;56.20;;;;;;5036241;28;20439;-78
2023/10/04 11:02:23;;;;;;;10.17;4.30;;;24.00;56.00;;;;;;5032934;28;20527;-77
2023/10/04 11:04:52;;;;;;;13.93;3.63;;;24.40;55.20;;;;;;5027477;28;20462;-77
2023/10/04 11:07:21;;;;;;;6.83;3.77;;;24.70;55.00;;;;;;5034764;28;20439;-77
2023/10/04 11:09:50;;;;;;;7.47;3.80;;;24.60;54.30;;;;;;5035007;28;20450;-77
2023/10/04 11:12:18;;;;;;;10.90;3.90;;;24.70;54.30;;;;;;5022867;28;20452;-76
2023/10/04 11:14:46;;;;;;;8.20;3.80;;;24.80;53.50;;;;;;5029267;28;20432;-77
2023/10/04 11:17:16;;;;;;;13.60;4.63;;;24.70;53.40;;;;;;5027470;28;20575;-77
2023/10/04 11:19:44;;;;;;;9.57;3.80;;;25.00;52.70;;;;;;5019149;28;20438;-78
2023/10/04 11:22:12;;;;;;;10.20;3.60;;;25.20;52.40;;;;;;5030671;28;20457;-76
2023/10/04 11:24:41;;;;;;;7.53;4.10;;;25.30;51.50;;;;;;5038641;28;20497;-78
2023/10/04 11:27:09;;;;;;;6.60;4.20;;;25.40;52.10;;;;;;5035134;28;20467;-77
2023/10/04 11:29:37;;;;;;;9.97;4.33;;;25.90;52.00;;;;;;5033450;28;20417;-77
2023/10/04 11:32:06;;;;;;;8.00;4.37;;;25.90;51.00;;;;;;5032464;28;20501;-77
2023/10/04 11:34:39;;;;;;;11.83;4.03;;;25.50;51.30;;;;;;5029983;28;20427;-76
2023/10/04 11:37:08;;;;;;;9.80;3.80;;;25.60;51.40;;;;;;5037254;28;20438;-77
2023/10/04 11:39:39;;;;;;;11.03;3.77;;;25.70;50.40;;;;;;5037670;28;20441;-78
2023/10/04 11:42:17;;;;;;;9.20;3.70;;;25.90;50.40;;;;;;5037675;28;20447;-78
2023/10/04 11:44:45;;;;;;;9.83;4.37;;;26.00;49.00;;;;;;5029880;28;20430;-77
2023/10/04 11:47:15;;;;;;;12.73;4.13;;;25.70;49.40;;;;;;5030662;28;20463;-74
2023/10/04 11:49:58;;;;;;;6.67;3.70;;;25.70;49.50;;;;;;5031601;28;20493;-76
2023/10/04 11:55:27;;;;;;;9.90;4.07;;;25.00;50.30;;;;;;5028260;28;20444;-75
2023/10/04 11:58:05;;;;;;;7.47;3.90;;;24.70;50.60;;;;;;5035076;28;20486;-75
2023/10/04 12:00:33;;;;;;;11.40;4.30;;;24.40;51.90;;;;;;5017381;28;20514;-75
2023/10/04 12:03:01;;;;;;;13.37;3.80;;;24.30;52.10;;;;;;5024197;28;20456;-76
2023/10/04 12:05:32;;;;;;;13.70;5.00;;;24.40;51.40;;;;;;5034995;28;20508;-77
2023/10/04 12:08:01;;;;;;;10.60;3.70;;;24.60;52.10;;;;;;5037566;28;20443;-76
2023/10/04 12:10:29;;;;;;;11.40;3.53;;;24.40;50.80;;;;;;5038776;28;20456;-75
2023/10/04 12:12:57;;;;;;;12.70;3.53;;;24.00;51.60;;;;;;5025510;28;20431;-75
2023/10/04 12:15:26;;;;;;;8.03;3.90;;;24.00;51.90;;;;;;5027010;28;20470;-76
2023/10/04 12:17:54;;;;;;;8.40;3.80;;;24.10;52.10;;;;;;5036044;28;20444;-76
2023/10/04 12:20:24;;;;;;;10.70;4.20;;;23.90;51.50;;;;;;5039698;28;20479;-80
2023/10/04 12:22:54;;;;;;;10.47;4.00;;;23.90;52.20;;;;;;5044934;28;20479;-79
2023/10/04 12:25:24;;;;;;;9.40;4.43;;;24.00;52.20;;;;;;5039134;28;20466;-77
2023/10/04 12:27:52;;;;;;;9.43;3.90;;;23.70;52.10;;;;;;5026086;28;20445;-77
2023/10/04 12:30:21;;;;;;;13.43;4.30;;;23.30;52.80;;;;;;5017221;28;20464;-77
2023/10/04 12:32:49;;;;;;;8.40;3.80;;;23.40;53.90;;;;;;5035292;28;20538;-77
2023/10/04 12:35:17;;;;;;;6.30;3.67;;;23.50;53.70;;;;;;5015470;28;20429;-77
2023/10/04 12:37:45;;;;;;;8.50;3.67;;;23.30;53.20;;;;;;5033896;28;20432;-75
2023/10/04 12:40:23;;;;;;;11.17;4.37;;;23.10;54.00;;;;;;5036470;28;20482;-78
2023/10/04 12:42:52;;;;;;;10.43;4.40;;;22.90;54.40;;;;;;5029502;28;20435;-78
2023/10/04 12:45:20;;;;;;;10.10;3.73;;;22.80;54.70;;;;;;5039560;28;20470;-79
2023/10/04 12:47:48;;;;;;;9.63;4.13;;;22.80;55.10;;;;;;5039405;28;20470;-77
2023/10/04 12:50:17;;;;;;;8.30;3.93;;;22.90;55.30;;;;;;5033934;28;20507;-78
2023/10/04 12:52:45;;;;;;;9.13;3.83;;;22.90;55.40;;;;;;5037491;28;20455;-79
2023/10/04 12:55:15;;;;;;;9.43;3.67;;;23.20;57.50;;;;;;5035184;28;20463;-80
2023/10/04 12:57:43;;;;;;;10.17;3.90;;;24.10;56.60;;;;;;5037345;28;20450;-81
2023/10/04 13:00:15;;;;;;;9.37;3.30;;;24.80;54.80;;;;;;5034802;28;20432;-79
2023/10/04 13:02:43;;;;;;;5.87;3.13;;;25.30;53.20;;;;;;5033955;28;20486;-80